Etusivu
METAR-TAF:

METAR-TAF

Lentoasemat :

Waupaca Municipal Airport

Waupaca, Wisconsin, Yhdysvallat

Leveyspiiri: 44-20-01N, Pituuspiiri: 089-00-55W, korkeus merenpinnasta: 252 m

Tämänhetkinen sää

Tämä raportti tehtiin 23 minuuttia sitten, kello 20.15 UTC
Tuuli 10 kn pohjoisen/luoteesta
Lämpötila -1°C
Kosteus 46%
Ilmanpaine 1020 hPa
Näkyvyys: 16.1 km
Pilvistä 3800 ft:n korkeudessa

METAR: KPCZ 262015Z AUTO 33010KT 10SM OVC038 M01/M11 A3011 RMK AO2 T10151106

Aika: 14:38 (20:38 UTC)


TAF: puuttuu

Säähavainnot ja -ennusteet yli 4000 lentoasemalta (METAR- ja TAF-raportit).

Käytössä olevat sääasemat on merkitty karttaan keltaisilla ja punaisilla pisteillä.

Aseta hiiri pisteen päälle nähdäksesi sääaseman nimen.

Klikkaa sitten nähdäksesi säähavainnot ja -ennusteet.

Kartan vaihtaminen: klikkaa mustalla rastilla varustettuja vihreitä pisteitä, niin voit zoomata sisään; viivalla varustettua vihreää pistettä, niin voit zoomata ulos tai vihreitä nuolia, niin pääset viereisille kartoille.


METAR-TAF: